sensor_id;sensor_type;location;lat;lon;timestamp;temperature;humidity
18141;DHT22;9196;49.194;12.526;2022-10-31T00:01:44;10.30;99.90
18141;DHT22;9196;49.194;12.526;2022-10-31T00:04:11;10.30;99.90
18141;DHT22;9196;49.194;12.526;2022-10-31T00:06:39;10.40;99.90
18141;DHT22;9196;49.194;12.526;2022-10-31T00:09:06;10.30;99.90
18141;DHT22;9196;49.194;12.526;2022-10-31T00:11:33;10.30;99.90
18141;DHT22;9196;49.194;12.526;2022-10-31T00:14:00;10.30;99.90
18141;DHT22;9196;49.194;12.526;2022-10-31T00:16:28;10.30;99.90
18141;DHT22;9196;49.194;12.526;2022-10-31T00:18:57;10.30;99.90
18141;DHT22;9196;49.194;12.526;2022-10-31T00:21:24;10.20;99.90
18141;DHT22;9196;49.194;12.526;2022-10-31T00:23:53;10.20;99.90
18141;DHT22;9196;49.194;12.526;2022-10-31T00:26:20;10.20;99.90
18141;DHT22;9196;49.194;12.526;2022-10-31T00:28:47;10.10;99.90
18141;DHT22;9196;49.194;12.526;2022-10-31T00:31:14;10.10;99.90
18141;DHT22;9196;49.194;12.526;2022-10-31T00:33:41;10.10;99.90
18141;DHT22;9196;49.194;12.526;2022-10-31T00:36:11;10.10;99.90
18141;DHT22;9196;49.194;12.526;2022-10-31T00:38:39;10.10;99.90
18141;DHT22;9196;49.194;12.526;2022-10-31T00:41:07;10.00;99.90
18141;DHT22;9196;49.194;12.526;2022-10-31T00:43:34;10.00;99.90
18141;DHT22;9196;49.194;12.526;2022-10-31T00:46:01;9.90;99.90
18141;DHT22;9196;49.194;12.526;2022-10-31T00:48:27;9.90;99.90
18141;DHT22;9196;49.194;12.526;2022-10-31T00:50:54;9.90;99.90
18141;DHT22;9196;49.194;12.526;2022-10-31T00:53:21;9.90;99.90
18141;DHT22;9196;49.194;12.526;2022-10-31T00:55:48;9.90;99.90
18141;DHT22;9196;49.194;12.526;2022-10-31T00:58:16;9.90;99.90
18141;DHT22;9196;49.194;12.526;2022-10-31T01:00:43;9.80;99.90
18141;DHT22;9196;49.194;12.526;2022-10-31T01:03:10;9.80;99.90
18141;DHT22;9196;49.194;12.526;2022-10-31T01:05:37;9.80;99.90
18141;DHT22;9196;49.194;12.526;2022-10-31T01:08:04;9.70;99.90
18141;DHT22;9196;49.194;12.526;2022-10-31T01:10:31;9.70;99.90
18141;DHT22;9196;49.194;12.526;2022-10-31T01:12:57;9.70;99.90
18141;DHT22;9196;49.194;12.526;2022-10-31T01:15:26;9.70;99.90
18141;DHT22;9196;49.194;12.526;2022-10-31T01:17:52;9.60;99.90
18141;DHT22;9196;49.194;12.526;2022-10-31T01:20:20;9.60;99.90
18141;DHT22;9196;49.194;12.526;2022-10-31T01:22:47;9.60;99.90
18141;DHT22;9196;49.194;12.526;2022-10-31T01:25:14;9.60;99.90
18141;DHT22;9196;49.194;12.526;2022-10-31T01:27:40;9.50;99.90
18141;DHT22;9196;49.194;12.526;2022-10-31T01:30:08;9.50;99.90
18141;DHT22;9196;49.194;12.526;2022-10-31T01:32:36;9.50;99.90
18141;DHT22;9196;49.194;12.526;2022-10-31T01:35:04;9.40;99.90
18141;DHT22;9196;49.194;12.526;2022-10-31T01:37:31;9.40;99.90
18141;DHT22;9196;49.194;12.526;2022-10-31T01:39:57;9.30;99.90
18141;DHT22;9196;49.194;12.526;2022-10-31T01:42:24;9.40;99.90
18141;DHT22;9196;49.194;12.526;2022-10-31T01:44:54;9.40;99.90
18141;DHT22;9196;49.194;12.526;2022-10-31T01:47:31;9.30;99.90
18141;DHT22;9196;49.194;12.526;2022-10-31T01:50:03;9.30;99.90
18141;DHT22;9196;49.194;12.526;2022-10-31T01:52:34;9.30;99.90
18141;DHT22;9196;49.194;12.526;2022-10-31T01:55:05;9.30;99.90
18141;DHT22;9196;49.194;12.526;2022-10-31T01:57:33;9.30;99.90
18141;DHT22;9196;49.194;12.526;2022-10-31T02:00:07;9.30;99.90
18141;DHT22;9196;49.194;12.526;2022-10-31T02:02:34;9.30;99.90
18141;DHT22;9196;49.194;12.526;2022-10-31T02:05:05;9.20;99.90
18141;DHT22;9196;49.194;12.526;2022-10-31T02:07:38;9.20;99.90
18141;DHT22;9196;49.194;12.526;2022-10-31T02:10:06;9.20;99.90
18141;DHT22;9196;49.194;12.526;2022-10-31T02:12:34;9.10;99.90
18141;DHT22;9196;49.194;12.526;2022-10-31T02:15:03;9.10;99.90
18141;DHT22;9196;49.194;12.526;2022-10-31T02:17:32;9.20;99.90
18141;DHT22;9196;49.194;12.526;2022-10-31T02:20:09;9.10;99.90
18141;DHT22;9196;49.194;12.526;2022-10-31T02:22:52;9.20;99.90
18141;DHT22;9196;49.194;12.526;2022-10-31T02:25:40;9.20;99.90
18141;DHT22;9196;49.194;12.526;2022-10-31T02:28:41;9.20;99.90
18141;DHT22;9196;49.194;12.526;2022-10-31T02:31:25;9.10;99.90
18141;DHT22;9196;49.194;12.526;2022-10-31T02:33:59;9.10;99.90
18141;DHT22;9196;49.194;12.526;2022-10-31T02:36:32;9.10;99.90
18141;DHT22;9196;49.194;12.526;2022-10-31T02:39:08;9.10;99.90
18141;DHT22;9196;49.194;12.526;2022-10-31T02:41:43;9.00;99.90
18141;DHT22;9196;49.194;12.526;2022-10-31T02:44:16;9.00;99.90
18141;DHT22;9196;49.194;12.526;2022-10-31T02:46:51;9.10;99.90
18141;DHT22;9196;49.194;12.526;2022-10-31T02:49:23;9.00;99.90
18141;DHT22;9196;49.194;12.526;2022-10-31T02:51:52;9.00;99.90
18141;DHT22;9196;49.194;12.526;2022-10-31T02:54:22;9.00;99.90
18141;DHT22;9196;49.194;12.526;2022-10-31T02:56:53;9.00;99.90
18141;DHT22;9196;49.194;12.526;2022-10-31T02:59:21;9.00;99.90
18141;DHT22;9196;49.194;12.526;2022-10-31T03:07:45;8.90;99.90
18141;DHT22;9196;49.194;12.526;2022-10-31T03:10:17;8.90;99.90
18141;DHT22;9196;49.194;12.526;2022-10-31T03:12:53;8.80;99.90
18141;DHT22;9196;49.194;12.526;2022-10-31T03:15:25;8.90;99.90
18141;DHT22;9196;49.194;12.526;2022-10-31T03:18:00;8.90;99.90
18141;DHT22;9196;49.194;12.526;2022-10-31T03:20:33;8.90;99.90
18141;DHT22;9196;49.194;12.526;2022-10-31T03:23:03;8.90;99.90
18141;DHT22;9196;49.194;12.526;2022-10-31T03:25:32;8.90;99.90
18141;DHT22;9196;49.194;12.526;2022-10-31T03:28:02;8.80;99.90
18141;DHT22;9196;49.194;12.526;2022-10-31T03:30:33;8.80;99.90
18141;DHT22;9196;49.194;12.526;2022-10-31T03:33:04;8.80;99.90
18141;DHT22;9196;49.194;12.526;2022-10-31T03:35:33;8.70;99.90
18141;DHT22;9196;49.194;12.526;2022-10-31T03:38:02;8.70;99.90
18141;DHT22;9196;49.194;12.526;2022-10-31T03:40:30;8.80;99.90
18141;DHT22;9196;49.194;12.526;2022-10-31T03:43:01;8.70;99.90
18141;DHT22;9196;49.194;12.526;2022-10-31T03:45:36;8.70;99.90
18141;DHT22;9196;49.194;12.526;2022-10-31T03:48:06;8.80;99.90
18141;DHT22;9196;49.194;12.526;2022-10-31T03:50:39;8.80;99.90
18141;DHT22;9196;49.194;12.526;2022-10-31T03:53:10;8.80;99.90
18141;DHT22;9196;49.194;12.526;2022-10-31T03:55:41;8.80;99.90
18141;DHT22;9196;49.194;12.526;2022-10-31T03:58:13;8.80;99.90
18141;DHT22;9196;49.194;12.526;2022-10-31T04:00:44;8.90;99.90
18141;DHT22;9196;49.194;12.526;2022-10-31T04:03:17;8.90;99.90
18141;DHT22;9196;49.194;12.526;2022-10-31T04:05:47;8.90;99.90
18141;DHT22;9196;49.194;12.526;2022-10-31T04:08:17;8.70;99.90
18141;DHT22;9196;49.194;12.526;2022-10-31T04:10:47;8.70;99.90
18141;DHT22;9196;49.194;12.526;2022-10-31T04:13:20;8.60;99.90
18141;DHT22;9196;49.194;12.526;2022-10-31T04:15:49;8.60;99.90
18141;DHT22;9196;49.194;12.526;2022-10-31T04:18:17;8.60;99.90
18141;DHT22;9196;49.194;12.526;2022-10-31T04:20:46;8.60;99.90
18141;DHT22;9196;49.194;12.526;2022-10-31T04:23:18;8.60;99.90
18141;DHT22;9196;49.194;12.526;2022-10-31T04:25:46;8.60;99.90
18141;DHT22;9196;49.194;12.526;2022-10-31T04:28:12;8.60;99.90
18141;DHT22;9196;49.194;12.526;2022-10-31T04:30:39;8.60;99.90
18141;DHT22;9196;49.194;12.526;2022-10-31T04:33:06;8.60;99.90
18141;DHT22;9196;49.194;12.526;2022-10-31T04:35:35;8.60;99.90
18141;DHT22;9196;49.194;12.526;2022-10-31T04:38:01;8.60;99.90
18141;DHT22;9196;49.194;12.526;2022-10-31T04:40:28;8.60;99.90
18141;DHT22;9196;49.194;12.526;2022-10-31T04:42:55;8.60;99.90
18141;DHT22;9196;49.194;12.526;2022-10-31T04:45:22;8.60;99.90
18141;DHT22;9196;49.194;12.526;2022-10-31T04:47:49;8.50;99.90
18141;DHT22;9196;49.194;12.526;2022-10-31T04:50:16;8.50;99.90
18141;DHT22;9196;49.194;12.526;2022-10-31T04:52:45;8.40;99.90
18141;DHT22;9196;49.194;12.526;2022-10-31T04:55:13;8.40;99.90
18141;DHT22;9196;49.194;12.526;2022-10-31T04:57:40;8.40;99.90
18141;DHT22;9196;49.194;12.526;2022-10-31T05:00:09;8.40;99.90
18141;DHT22;9196;49.194;12.526;2022-10-31T05:02:43;8.40;99.90
18141;DHT22;9196;49.194;12.526;2022-10-31T05:05:10;8.40;99.90
18141;DHT22;9196;49.194;12.526;2022-10-31T05:07:38;8.40;99.90
18141;DHT22;9196;49.194;12.526;2022-10-31T05:10:08;8.40;99.90
18141;DHT22;9196;49.194;12.526;2022-10-31T05:12:36;8.40;99.90
18141;DHT22;9196;49.194;12.526;2022-10-31T05:15:04;8.30;99.90
18141;DHT22;9196;49.194;12.526;2022-10-31T05:17:32;8.30;99.90
18141;DHT22;9196;49.194;12.526;2022-10-31T05:19:58;8.30;99.90
18141;DHT22;9196;49.194;12.526;2022-10-31T05:22:25;8.30;99.90
18141;DHT22;9196;49.194;12.526;2022-10-31T05:24:52;8.30;99.90
18141;DHT22;9196;49.194;12.526;2022-10-31T05:27:20;8.30;99.90
18141;DHT22;9196;49.194;12.526;2022-10-31T05:29:47;8.40;99.90
18141;DHT22;9196;49.194;12.526;2022-10-31T05:32:14;8.40;99.90
18141;DHT22;9196;49.194;12.526;2022-10-31T05:34:41;8.40;99.90
18141;DHT22;9196;49.194;12.526;2022-10-31T05:37:07;8.50;99.90
18141;DHT22;9196;49.194;12.526;2022-10-31T05:39:34;8.50;99.90
18141;DHT22;9196;49.194;12.526;2022-10-31T05:42:01;8.50;99.90
18141;DHT22;9196;49.194;12.526;2022-10-31T05:44:30;8.40;99.90
18141;DHT22;9196;49.194;12.526;2022-10-31T05:46:56;8.30;99.90
18141;DHT22;9196;49.194;12.526;2022-10-31T05:49:23;8.30;99.90
18141;DHT22;9196;49.194;12.526;2022-10-31T05:51:50;8.30;99.90
18141;DHT22;9196;49.194;12.526;2022-10-31T05:54:17;8.30;99.90
18141;DHT22;9196;49.194;12.526;2022-10-31T05:56:44;8.30;99.90
18141;DHT22;9196;49.194;12.526;2022-10-31T05:59:11;8.30;99.90
18141;DHT22;9196;49.194;12.526;2022-10-31T06:01:39;8.30;99.90
18141;DHT22;9196;49.194;12.526;2022-10-31T06:04:06;8.40;99.90
18141;DHT22;9196;49.194;12.526;2022-10-31T06:06:32;8.40;99.90
18141;DHT22;9196;49.194;12.526;2022-10-31T06:08:59;8.40;99.90
18141;DHT22;9196;49.194;12.526;2022-10-31T06:11:26;8.40;99.90
18141;DHT22;9196;49.194;12.526;2022-10-31T06:13:53;8.40;99.90
18141;DHT22;9196;49.194;12.526;2022-10-31T06:16:20;8.40;99.90
18141;DHT22;9196;49.194;12.526;2022-10-31T06:18:48;8.40;99.90
18141;DHT22;9196;49.194;12.526;2022-10-31T06:21:15;8.40;99.90
18141;DHT22;9196;49.194;12.526;2022-10-31T06:23:42;8.40;99.90
18141;DHT22;9196;49.194;12.526;2022-10-31T06:26:09;8.30;99.90
18141;DHT22;9196;49.194;12.526;2022-10-31T06:28:35;8.40;99.90
18141;DHT22;9196;49.194;12.526;2022-10-31T06:31:02;8.40;99.90
18141;DHT22;9196;49.194;12.526;2022-10-31T06:33:29;8.40;99.90
18141;DHT22;9196;49.194;12.526;2022-10-31T06:35:57;8.50;99.90
18141;DHT22;9196;49.194;12.526;2022-10-31T06:38:25;8.50;99.90
18141;DHT22;9196;49.194;12.526;2022-10-31T06:40:52;8.40;99.90
18141;DHT22;9196;49.194;12.526;2022-10-31T06:43:19;8.30;99.90
18141;DHT22;9196;49.194;12.526;2022-10-31T06:45:47;8.30;99.90
18141;DHT22;9196;49.194;12.526;2022-10-31T06:48:13;8.20;99.90
18141;DHT22;9196;49.194;12.526;2022-10-31T06:50:40;8.30;99.90
18141;DHT22;9196;49.194;12.526;2022-10-31T06:53:09;8.20;99.90
18141;DHT22;9196;49.194;12.526;2022-10-31T06:55:36;8.20;99.90
18141;DHT22;9196;49.194;12.526;2022-10-31T06:58:02;8.20;99.90
18141;DHT22;9196;49.194;12.526;2022-10-31T07:00:30;8.10;99.90
18141;DHT22;9196;49.194;12.526;2022-10-31T07:02:59;8.10;99.90
18141;DHT22;9196;49.194;12.526;2022-10-31T07:05:26;8.20;99.90
18141;DHT22;9196;49.194;12.526;2022-10-31T07:07:53;8.20;99.90
18141;DHT22;9196;49.194;12.526;2022-10-31T07:10:22;8.30;99.90
18141;DHT22;9196;49.194;12.526;2022-10-31T07:12:54;8.50;99.90
18141;DHT22;9196;49.194;12.526;2022-10-31T07:15:21;8.50;99.90
18141;DHT22;9196;49.194;12.526;2022-10-31T07:17:48;8.70;99.90
18141;DHT22;9196;49.194;12.526;2022-10-31T07:20:15;8.70;99.90
18141;DHT22;9196;49.194;12.526;2022-10-31T07:22:42;8.80;99.90
18141;DHT22;9196;49.194;12.526;2022-10-31T07:25:10;9.00;99.90
18141;DHT22;9196;49.194;12.526;2022-10-31T07:27:39;9.10;99.90
18141;DHT22;9196;49.194;12.526;2022-10-31T07:30:07;9.20;99.90
18141;DHT22;9196;49.194;12.526;2022-10-31T07:32:38;9.30;99.90
18141;DHT22;9196;49.194;12.526;2022-10-31T07:35:06;9.30;99.90
18141;DHT22;9196;49.194;12.526;2022-10-31T07:37:33;9.40;99.90
18141;DHT22;9196;49.194;12.526;2022-10-31T07:40:00;9.50;99.90
18141;DHT22;9196;49.194;12.526;2022-10-31T07:42:27;9.40;99.90
18141;DHT22;9196;49.194;12.526;2022-10-31T07:44:55;9.30;99.90
18141;DHT22;9196;49.194;12.526;2022-10-31T07:47:22;9.30;99.90
18141;DHT22;9196;49.194;12.526;2022-10-31T07:49:49;9.30;99.90
18141;DHT22;9196;49.194;12.526;2022-10-31T07:52:15;9.40;99.90
18141;DHT22;9196;49.194;12.526;2022-10-31T07:54:42;9.40;99.90
18141;DHT22;9196;49.194;12.526;2022-10-31T07:57:09;9.50;99.90
18141;DHT22;9196;49.194;12.526;2022-10-31T07:59:36;9.60;99.90
18141;DHT22;9196;49.194;12.526;2022-10-31T08:02:04;9.70;99.90
18141;DHT22;9196;49.194;12.526;2022-10-31T08:04:31;9.70;99.90
18141;DHT22;9196;49.194;12.526;2022-10-31T08:06:58;9.80;99.90
18141;DHT22;9196;49.194;12.526;2022-10-31T08:09:25;9.80;99.90
18141;DHT22;9196;49.194;12.526;2022-10-31T08:11:52;10.00;99.90
18141;DHT22;9196;49.194;12.526;2022-10-31T08:14:19;10.10;99.90
18141;DHT22;9196;49.194;12.526;2022-10-31T08:16:47;10.20;99.90
18141;DHT22;9196;49.194;12.526;2022-10-31T08:19:16;10.30;99.90
18141;DHT22;9196;49.194;12.526;2022-10-31T08:21:42;10.40;99.90
18141;DHT22;9196;49.194;12.526;2022-10-31T08:24:09;10.50;99.90
18141;DHT22;9196;49.194;12.526;2022-10-31T08:26:36;10.60;99.90
18141;DHT22;9196;49.194;12.526;2022-10-31T08:29:03;10.60;99.90
18141;DHT22;9196;49.194;12.526;2022-10-31T08:31:30;10.50;99.90
18141;DHT22;9196;49.194;12.526;2022-10-31T08:33:57;10.50;99.90
18141;DHT22;9196;49.194;12.526;2022-10-31T08:36:26;10.60;99.90
18141;DHT22;9196;49.194;12.526;2022-10-31T08:38:53;10.60;99.90
18141;DHT22;9196;49.194;12.526;2022-10-31T08:41:20;10.60;99.90
18141;DHT22;9196;49.194;12.526;2022-10-31T08:43:47;10.80;99.90
18141;DHT22;9196;49.194;12.526;2022-10-31T08:46:14;10.80;99.90
18141;DHT22;9196;49.194;12.526;2022-10-31T08:48:41;10.90;99.90
18141;DHT22;9196;49.194;12.526;2022-10-31T08:51:08;11.10;99.90
18141;DHT22;9196;49.194;12.526;2022-10-31T08:53:37;11.20;99.90
18141;DHT22;9196;49.194;12.526;2022-10-31T08:56:04;11.40;99.90
18141;DHT22;9196;49.194;12.526;2022-10-31T08:58:31;11.50;99.90
18141;DHT22;9196;49.194;12.526;2022-10-31T09:00:59;11.70;99.90
18141;DHT22;9196;49.194;12.526;2022-10-31T09:03:28;11.80;99.90
18141;DHT22;9196;49.194;12.526;2022-10-31T09:05:56;11.90;99.90
18141;DHT22;9196;49.194;12.526;2022-10-31T09:08:23;12.10;99.90
18141;DHT22;9196;49.194;12.526;2022-10-31T09:10:52;12.30;99.90
18141;DHT22;9196;49.194;12.526;2022-10-31T09:13:23;12.30;99.90
18141;DHT22;9196;49.194;12.526;2022-10-31T09:15:50;12.30;99.90
18141;DHT22;9196;49.194;12.526;2022-10-31T09:18:19;12.30;99.90
18141;DHT22;9196;49.194;12.526;2022-10-31T09:20:48;12.40;99.90
18141;DHT22;9196;49.194;12.526;2022-10-31T09:23:17;12.40;99.90
18141;DHT22;9196;49.194;12.526;2022-10-31T09:25:45;12.40;99.90
18141;DHT22;9196;49.194;12.526;2022-10-31T09:28:15;12.50;99.90
18141;DHT22;9196;49.194;12.526;2022-10-31T09:30:46;12.40;99.90
18141;DHT22;9196;49.194;12.526;2022-10-31T09:33:13;12.40;99.90
18141;DHT22;9196;49.194;12.526;2022-10-31T09:35:41;12.60;99.90
18141;DHT22;9196;49.194;12.526;2022-10-31T09:38:10;12.70;99.90
18141;DHT22;9196;49.194;12.526;2022-10-31T09:40:38;12.80;99.90
18141;DHT22;9196;49.194;12.526;2022-10-31T09:43:15;13.00;99.90
18141;DHT22;9196;49.194;12.526;2022-10-31T09:45:49;13.30;99.90
18141;DHT22;9196;49.194;12.526;2022-10-31T09:48:31;13.50;99.90
18141;DHT22;9196;49.194;12.526;2022-10-31T09:51:05;13.80;99.90
18141;DHT22;9196;49.194;12.526;2022-10-31T09:53:37;14.00;99.90
18141;DHT22;9196;49.194;12.526;2022-10-31T09:56:08;14.20;99.90
18141;DHT22;9196;49.194;12.526;2022-10-31T09:58:41;14.40;99.90
18141;DHT22;9196;49.194;12.526;2022-10-31T10:01:21;14.50;99.90
18141;DHT22;9196;49.194;12.526;2022-10-31T10:03:53;14.60;99.90
18141;DHT22;9196;49.194;12.526;2022-10-31T10:06:24;14.80;99.90
18141;DHT22;9196;49.194;12.526;2022-10-31T10:08:51;14.90;99.90
18141;DHT22;9196;49.194;12.526;2022-10-31T10:11:31;15.10;99.90
18141;DHT22;9196;49.194;12.526;2022-10-31T10:14:22;15.40;99.90
18141;DHT22;9196;49.194;12.526;2022-10-31T10:16:59;15.70;99.90
18141;DHT22;9196;49.194;12.526;2022-10-31T10:19:41;15.90;99.90
18141;DHT22;9196;49.194;12.526;2022-10-31T10:22:15;16.10;99.90
18141;DHT22;9196;49.194;12.526;2022-10-31T10:24:55;16.40;99.90
18141;DHT22;9196;49.194;12.526;2022-10-31T10:27:41;16.60;99.90
18141;DHT22;9196;49.194;12.526;2022-10-31T10:30:16;16.80;99.90
18141;DHT22;9196;49.194;12.526;2022-10-31T10:32:45;16.90;99.90
18141;DHT22;9196;49.194;12.526;2022-10-31T10:35:22;16.90;99.90
18141;DHT22;9196;49.194;12.526;2022-10-31T10:37:52;17.00;99.90
18141;DHT22;9196;49.194;12.526;2022-10-31T10:40:21;17.20;99.90
18141;DHT22;9196;49.194;12.526;2022-10-31T10:42:56;17.40;99.90
18141;DHT22;9196;49.194;12.526;2022-10-31T10:45:47;17.60;99.90
18141;DHT22;9196;49.194;12.526;2022-10-31T10:48:41;17.70;99.90
18141;DHT22;9196;49.194;12.526;2022-10-31T10:51:19;17.70;99.90
18141;DHT22;9196;49.194;12.526;2022-10-31T10:53:58;17.80;99.90
18141;DHT22;9196;49.194;12.526;2022-10-31T10:56:36;18.00;99.90
18141;DHT22;9196;49.194;12.526;2022-10-31T10:59:10;18.10;99.90
18141;DHT22;9196;49.194;12.526;2022-10-31T11:01:40;18.00;99.90
18141;DHT22;9196;49.194;12.526;2022-10-31T11:04:21;18.00;99.90
18141;DHT22;9196;49.194;12.526;2022-10-31T11:06:57;18.30;99.90
18141;DHT22;9196;49.194;12.526;2022-10-31T11:09:24;18.60;99.90
18141;DHT22;9196;49.194;12.526;2022-10-31T11:11:51;18.70;99.90
18141;DHT22;9196;49.194;12.526;2022-10-31T11:14:18;18.70;99.90
18141;DHT22;9196;49.194;12.526;2022-10-31T11:16:49;18.90;99.90
18141;DHT22;9196;49.194;12.526;2022-10-31T11:19:18;19.20;99.90
18141;DHT22;9196;49.194;12.526;2022-10-31T11:21:46;19.40;99.90
18141;DHT22;9196;49.194;12.526;2022-10-31T11:24:16;19.60;99.90
18141;DHT22;9196;49.194;12.526;2022-10-31T11:26:45;19.80;99.90
18141;DHT22;9196;49.194;12.526;2022-10-31T11:29:15;19.90;99.90
18141;DHT22;9196;49.194;12.526;2022-10-31T11:31:44;20.10;99.90
18141;DHT22;9196;49.194;12.526;2022-10-31T11:34:26;20.20;99.90
18141;DHT22;9196;49.194;12.526;2022-10-31T11:37:02;20.30;99.90
18141;DHT22;9196;49.194;12.526;2022-10-31T11:39:29;20.60;99.90
18141;DHT22;9196;49.194;12.526;2022-10-31T11:41:59;20.80;99.90
18141;DHT22;9196;49.194;12.526;2022-10-31T11:44:29;20.90;99.90
18141;DHT22;9196;49.194;12.526;2022-10-31T11:46:59;20.90;99.90
18141;DHT22;9196;49.194;12.526;2022-10-31T11:49:30;20.90;99.90
18141;DHT22;9196;49.194;12.526;2022-10-31T11:52:00;21.00;99.90
18141;DHT22;9196;49.194;12.526;2022-10-31T11:54:44;21.20;99.90
18141;DHT22;9196;49.194;12.526;2022-10-31T11:57:25;21.60;99.90
18141;DHT22;9196;49.194;12.526;2022-10-31T11:59:54;21.80;99.90
18141;DHT22;9196;49.194;12.526;2022-10-31T12:02:22;21.90;99.90
18141;DHT22;9196;49.194;12.526;2022-10-31T12:04:58;22.10;99.90
18141;DHT22;9196;49.194;12.526;2022-10-31T12:07:26;22.20;99.60
18141;DHT22;9196;49.194;12.526;2022-10-31T12:09:53;22.20;99.10
18141;DHT22;9196;49.194;12.526;2022-10-31T12:12:44;22.40;98.90
18141;DHT22;9196;49.194;12.526;2022-10-31T12:15:31;22.70;98.60
18141;DHT22;9196;49.194;12.526;2022-10-31T12:18:17;23.00;98.30
18141;DHT22;9196;49.194;12.526;2022-10-31T12:20:56;23.30;97.70
18141;DHT22;9196;49.194;12.526;2022-10-31T12:23:35;23.50;96.50
18141;DHT22;9196;49.194;12.526;2022-10-31T12:26:14;23.50;95.90
18141;DHT22;9196;49.194;12.526;2022-10-31T12:29:02;23.50;95.60
18141;DHT22;9196;49.194;12.526;2022-10-31T12:31:41;23.40;95.20
18141;DHT22;9196;49.194;12.526;2022-10-31T12:34:36;23.40;94.80
18141;DHT22;9196;49.194;12.526;2022-10-31T12:37:15;23.50;94.70
18141;DHT22;9196;49.194;12.526;2022-10-31T12:39:54;23.40;94.60
18141;DHT22;9196;49.194;12.526;2022-10-31T12:42:37;23.50;94.90
18141;DHT22;9196;49.194;12.526;2022-10-31T12:45:18;23.50;94.60
18141;DHT22;9196;49.194;12.526;2022-10-31T12:48:03;23.50;93.90
18141;DHT22;9196;49.194;12.526;2022-10-31T12:50:45;23.70;94.30
18141;DHT22;9196;49.194;12.526;2022-10-31T12:53:23;23.80;94.10
18141;DHT22;9196;49.194;12.526;2022-10-31T12:56:02;24.00;94.00
18141;DHT22;9196;49.194;12.526;2022-10-31T12:58:34;23.90;92.60
18141;DHT22;9196;49.194;12.526;2022-10-31T13:01:09;23.90;93.40
18141;DHT22;9196;49.194;12.526;2022-10-31T13:03:44;23.80;92.90
18141;DHT22;9196;49.194;12.526;2022-10-31T13:06:16;23.50;93.30
18141;DHT22;9196;49.194;12.526;2022-10-31T13:08:49;23.50;93.50
18141;DHT22;9196;49.194;12.526;2022-10-31T13:11:20;23.40;94.10
18141;DHT22;9196;49.194;12.526;2022-10-31T13:14:05;23.30;93.40
18141;DHT22;9196;49.194;12.526;2022-10-31T13:16:36;23.30;93.60
18141;DHT22;9196;49.194;12.526;2022-10-31T13:19:09;23.30;94.10
18141;DHT22;9196;49.194;12.526;2022-10-31T13:21:40;23.50;94.50
18141;DHT22;9196;49.194;12.526;2022-10-31T13:24:13;23.50;94.10
18141;DHT22;9196;49.194;12.526;2022-10-31T13:26:44;23.60;93.90
18141;DHT22;9196;49.194;12.526;2022-10-31T13:29:17;23.70;93.10
18141;DHT22;9196;49.194;12.526;2022-10-31T13:31:45;23.70;92.70
18141;DHT22;9196;49.194;12.526;2022-10-31T13:34:20;23.60;92.00
18141;DHT22;9196;49.194;12.526;2022-10-31T13:36:57;23.50;92.70
18141;DHT22;9196;49.194;12.526;2022-10-31T13:39:33;23.40;91.70
18141;DHT22;9196;49.194;12.526;2022-10-31T13:42:08;23.20;91.60
18141;DHT22;9196;49.194;12.526;2022-10-31T13:44:38;23.10;91.90
18141;DHT22;9196;49.194;12.526;2022-10-31T13:47:21;22.90;92.40
18141;DHT22;9196;49.194;12.526;2022-10-31T13:49:48;22.80;93.20
18141;DHT22;9196;49.194;12.526;2022-10-31T13:52:23;22.70;93.50
18141;DHT22;9196;49.194;12.526;2022-10-31T13:54:52;22.60;94.00
18141;DHT22;9196;49.194;12.526;2022-10-31T13:57:30;22.50;94.10
18141;DHT22;9196;49.194;12.526;2022-10-31T14:00:00;22.50;94.50
18141;DHT22;9196;49.194;12.526;2022-10-31T14:02:30;22.40;94.50
18141;DHT22;9196;49.194;12.526;2022-10-31T14:04:59;22.40;94.70
18141;DHT22;9196;49.194;12.526;2022-10-31T14:07:27;22.30;95.50
18141;DHT22;9196;49.194;12.526;2022-10-31T14:09:59;22.10;95.50
18141;DHT22;9196;49.194;12.526;2022-10-31T14:12:30;22.00;96.30
18141;DHT22;9196;49.194;12.526;2022-10-31T14:15:02;21.90;97.10
18141;DHT22;9196;49.194;12.526;2022-10-31T14:17:36;21.70;98.50
18141;DHT22;9196;49.194;12.526;2022-10-31T14:23:32;21.40;99.90
18141;DHT22;9196;49.194;12.526;2022-10-31T14:26:31;21.20;99.90
18141;DHT22;9196;49.194;12.526;2022-10-31T14:29:00;21.10;99.90
18141;DHT22;9196;49.194;12.526;2022-10-31T14:31:34;21.00;99.90
18141;DHT22;9196;49.194;12.526;2022-10-31T14:37:03;20.90;99.90
18141;DHT22;9196;49.194;12.526;2022-10-31T14:39:37;20.80;99.90
18141;DHT22;9196;49.194;12.526;2022-10-31T14:42:19;20.60;99.90
18141;DHT22;9196;49.194;12.526;2022-10-31T14:45:15;20.50;99.90
18141;DHT22;9196;49.194;12.526;2022-10-31T14:47:52;20.40;99.90
18141;DHT22;9196;49.194;12.526;2022-10-31T14:50:27;20.20;99.90
18141;DHT22;9196;49.194;12.526;2022-10-31T14:53:01;20.10;99.90
18141;DHT22;9196;49.194;12.526;2022-10-31T14:55:29;20.00;99.90
18141;DHT22;9196;49.194;12.526;2022-10-31T14:58:01;19.90;99.90
18141;DHT22;9196;49.194;12.526;2022-10-31T15:00:29;19.70;99.90
18141;DHT22;9196;49.194;12.526;2022-10-31T15:03:07;19.70;99.90
18141;DHT22;9196;49.194;12.526;2022-10-31T15:05:42;19.60;99.90
18141;DHT22;9196;49.194;12.526;2022-10-31T15:08:25;19.50;99.90
18141;DHT22;9196;49.194;12.526;2022-10-31T15:10:53;19.40;99.90
18141;DHT22;9196;49.194;12.526;2022-10-31T15:13:21;19.30;99.90
18141;DHT22;9196;49.194;12.526;2022-10-31T15:15:49;19.20;99.90
18141;DHT22;9196;49.194;12.526;2022-10-31T15:18:21;19.10;99.90
18141;DHT22;9196;49.194;12.526;2022-10-31T15:20:48;18.90;99.90
18141;DHT22;9196;49.194;12.526;2022-10-31T15:23:20;18.80;99.90
18141;DHT22;9196;49.194;12.526;2022-10-31T15:25:48;18.70;99.90
18141;DHT22;9196;49.194;12.526;2022-10-31T15:28:16;18.60;99.90
18141;DHT22;9196;49.194;12.526;2022-10-31T15:30:53;18.50;99.90
18141;DHT22;9196;49.194;12.526;2022-10-31T15:33:22;18.40;99.90
18141;DHT22;9196;49.194;12.526;2022-10-31T15:35:57;18.40;99.90
18141;DHT22;9196;49.194;12.526;2022-10-31T15:38:25;18.30;99.90
18141;DHT22;9196;49.194;12.526;2022-10-31T15:40:54;18.30;99.90
18141;DHT22;9196;49.194;12.526;2022-10-31T15:43:22;18.20;99.90
18141;DHT22;9196;49.194;12.526;2022-10-31T15:45:49;18.20;99.90
18141;DHT22;9196;49.194;12.526;2022-10-31T15:48:19;18.10;99.90
18141;DHT22;9196;49.194;12.526;2022-10-31T15:50:49;18.00;99.90
18141;DHT22;9196;49.194;12.526;2022-10-31T15:53:18;17.90;99.90
18141;DHT22;9196;49.194;12.526;2022-10-31T15:55:49;17.80;99.90
18141;DHT22;9196;49.194;12.526;2022-10-31T15:58:17;17.70;99.90
18141;DHT22;9196;49.194;12.526;2022-10-31T16:00:44;17.50;99.90
18141;DHT22;9196;49.194;12.526;2022-10-31T16:03:23;17.40;99.90
18141;DHT22;9196;49.194;12.526;2022-10-31T16:05:52;17.40;99.90
18141;DHT22;9196;49.194;12.526;2022-10-31T16:08:35;17.30;99.90
18141;DHT22;9196;49.194;12.526;2022-10-31T16:11:16;17.30;99.90
18141;DHT22;9196;49.194;12.526;2022-10-31T16:13:54;17.20;99.90